Avon Lake, Ohio
Current Conditions -  °F | °C
As of 12:51 PM on Saturday 25 Oct 2014 (Local Time) from KCLE Reporting Station
Few Clouds Few Clouds  
Wind Chill: 66°   Ceiling: Unl
Heat Index: 66°   Visibility: 10mi
Dew Point: 53°   Wind: 17mph
Humidity: 63%   Direction: 240°WSW
Pressure: 29.82"   Gusts: NA
Location:  41.51°N, 82.02°W
Report Text: KCLE 251651Z 24015KT 10SM FEW040 19/12 A2982 RMK AO2 SLP097 T01890117
Loading
Personal Weather Stations






























Interactive Weather Map New forecast layout! Learn more

10-Day Weather Forecast

Advertisements
Track Severe Weather on mobile